Thursday, February 22, 2018, 5:43 AM EST
Back to Local

KPWM, Portland International Jetport

Location: Portland, ME, United States Lat: 43.65
Local Time: 5:43 AM EST (10:43 GMT) Lon: -70.3
Time Zone: US/Eastern Elev: 75 ft

Show me the last for .
Show Coded

Time T Td Feel RH Dir Speed Gust Alt SLP Vis Weather Sky Remarks
2018-02-22 04:51 37 23 30 56 10° 9 - 30.56 30.56 10 OVC100 None
2018-02-22 03:51 38 24 34 56 Variable 5 - 30.55 30.55 10 OVC100 None
2018-02-22 02:51 40 25 35 54 350° 7 - 30.52 30.52 10 OVC095 None
2018-02-22 01:51 42 28 39 57 Variable 5 - 30.49 30.49 10 OVC090 None
2018-02-22 00:51 43 32 39 64 Variable 7 - 30.46 30.46 10 OVC090 6-hr Min Temp (1am): 43.0°F
6-hr Max Temp (1am): 60.1°F
2018-02-21 23:51 45 32 39 60 320° 12 - 30.41 30.41 10 SCT090 24-hr Min Temp (12am): 35.1°F
24-hr Max Temp (12am): 68.0°F
2018-02-21 22:51 47 31 42 53 340° 12 - 30.36 30.36 10 CLR Pressure rising rapidly
2018-02-21 21:51 50 35 46 56 320° 9 - 30.30 30.30 10 CLR None
2018-02-21 20:51 54 39 - 56 310° 13 20 30.28 30.28 10 BKN085 None
2018-02-21 19:51 55 43 - 63 310° 12 - 30.24 30.24 10 FEW048 OVC075 None
2018-02-21 18:51 60 48 - 64 310° 16 - 30.18 30.18 10 OVC060 Peak wind: 29 mph (26 kts) from 330° at 19 min
Pressure rising rapidly
6-hr Min Temp (7pm): 55.0°F
6-hr Max Temp (7pm): 68.0°F
2018-02-21 17:51 61 52 - 72 170° 10 - 30.11 30.11 10 BKN070 Pressure rising rapidly
2018-02-21 16:51 59 50 - 72 170° 8 - 30.04 30.04 10 BKN065 None
2018-02-21 15:51 62 52 - 69 160° 13 - 30.02 30.01 10 BKN250 None
2018-02-21 14:51 67 55 - 65 160° 14 - 30.01 30.01 10 BKN250 None
2018-02-21 13:51 64 54 - 69 180° 10 - 30.02 30.02 10 BKN250 None
2018-02-21 12:51 61 53 - 75 180° 12 - 30.05 30.05 10 SCT150 BKN250 6-hr Min Temp (1pm): 35.1°F
6-hr Max Temp (1pm): 61.0°F
2018-02-21 11:51 58 52 - 80 190° 12 - 30.07 30.07 10 SCT150 BKN250 None
2018-02-21 10:51 51 49 - 92 170° 10 - 30.10 30.10 10 FEW150 BKN250 None
2018-02-21 09:51 45 45 40 100 180° 9 - 30.12 30.12 6 BR SCT002 None
2018-02-21 09:40 44 44 41 100 190° 6 - 30.12 - 4 BR OVC002 None
2018-02-21 09:30 43 43 41 100 210° 3 - 30.13 - 0 FG OVC002 None
2018-02-21 08:51 42 42 39 100 Variable 5 - 30.14 30.14 0 FG VV002 None
2018-02-21 08:19 40 40 35 100 220° 7 - 30.15 - 0 FG OVC002 None
2018-02-21 07:51 38 38 - 100 - Calm - 30.16 30.16 1 BR OVC002 None
2018-02-21 07:42 38 38 - 100 - Calm - 30.16 - 0 MIFG OVC002 None
2018-02-21 06:51 35 35 32 100 180° 3 - 30.17 30.17 0 FG VV001 6-hr Min Temp (7am): 35.1°F
6-hr Max Temp (7am): 37.0°F
2018-02-21 06:02 35 35 - 100 - Calm - 30.18 - 0 FG VV001 None
2018-02-21 05:51 35 35 - 100 - Calm - 30.18 30.19 0 FG VV002 None

Support USWX by starting your Amazon purchase here.